默认 日期 大小 文件数 浏览量 最新下载 xml
reactor磁力链接相关资源由用户搜索指令自动获取,结果来源于网络,本站不存储任何资料,亦不承担任何责任,请于24小时内删除,搜索到504个磁力,用时1ms。
    ... .pdf": 6579053, "Fundamentals of Nuclear Reactor Physics _ 2008.pdf": 2848334 ... , "The Nuclear Physics and Reactor Theory Handbook.pdf": 3401351}, "Nuclear ...
创建时间: 2019-12-04 02:35:02 大小:3.88 GB 文件数量:49 热度:6 最近下载:2024-10-31 17:37:01
    {"Sample": {"rcr-twwabn-sample.avi": 11513856}, "rcr-twwabn.nfo": 5346, "www.Torrenting.com.txt": 509, "READ this before playing the Movie.txt": 509, "The.Woman.With.A.Broken.Nose.2010.SR.DVDRip.XviD-REACTOR.avi": 733933568}
创建时间: 2019-12-04 04:12:39 大小:710.92 MB 文件数量:5 热度:4 最近下载:2023-12-26 12:18:03
    {"Sample": {"rcr-twwabn-sample.avi": 11513856}, "rcr-twwabn.nfo": 5346, "rcr-twwabn.r00": 15000000, "rcr-twwabn.r01": 15000000, "rcr-twwabn.r02": 15000000, "rcr-twwabn.r03": 15000000, "rcr-twwabn.r04": 15000000, "rcr-twwabn.r05": 15000000, "rcr-twwabn.r06 ...
创建时间: 2019-12-09 02:32:41 大小:717.94 MB 文件数量:55 热度:4 最近下载:2024-09-04 01:46:02
    ... .Dead.2009.UNCUT.DVDRip.XviD-REACTOR.idx": 258306}, "Sample": {"rcr-zotd ... .Dead.2009.UNCUT.DVDRip.XviD-REACTOR.avi": 733896704}
创建时间: 2019-12-12 04:28:46 大小:704.67 MB 文件数量:6 热度:4 最近下载:2023-12-28 12:47:06
    ... Released Vol.1 - Outside The Reactor.jpg": 53277, "03. The Fatima ... Mansions - The Loyaliser (Juno Reactor Instrumental Remix).mp3": 17763300}
创建时间: 2019-12-23 05:10:32 大小:159.92 MB 文件数量:11 热度:6 最近下载:2025-09-20 08:39:02
    {"ssc": {"Immoral Sisters 3.jpg": 121918, "Immoral Sisters 3 Cover.jpg": 418184, "Immoral Sisters 3 Cover .jpg": 269673, "Immoral Sisters - Blossoming - 01.jpg": 238785, "Immoral Sisters - Blossoming - 02.jpg": 217234}, "[HR&HS] Immoral Sisters - ...
创建时间: 2019-12-25 13:37:03 大小:650.83 MB 文件数量:7 热度:29 最近下载:2025-08-26 03:59:02
    ... 906776, "01. Nukhta (Juno Reactor Remix).mp3": 18060418}, "1996 ... , "02. Pistolero (Juno Reactor Mix).mp3": 15114503, "05 ... 8266928, "02. Intoxicated (Juno Reactor & Dino Remix).mp3": 11132068}, ... 147250062}, "2011 - Inside The Reactor": {"Cover Front.jpg": 520674 ...
创建时间: 2020-01-01 19:25:16 大小:3.93 GB 文件数量:295 热度:4 最近下载:2024-01-01 02:39:03
    {"Subs": {"Lea.And.Darija.2011.DVDRip.XviD-REACTOR.idx": 75103}, "rcr-lad.nfo": 3808, "www.Torrenting.com.txt": 605, "READ this before playing the Movie.txt": 605, "Lea.And.Darija.2011.DVDRip.XviD-REACTOR.avi": 733753344}
创建时间: 2020-01-05 21:49:00 大小:699.84 MB 文件数量:5 热度:7 最近下载:2025-08-03 22:50:11
    {"Sample": {"rcr-sd-sample.avi": 8796160}, "rcr-sd.jpg": 5486, "rcr-sd.nfo": 4945, "www.Torrenting.com.txt": 605, "READ this before playing the Movie.txt": 605, "Space.Dogs.2010.WS.DVDRip.XviD-REACTOR.avi": 733927424}
创建时间: 2020-01-18 23:41:51 大小:708.33 MB 文件数量:6 热度:4 最近下载:2022-04-08 06:09:54
    {"rcr-trol.nfo": 5600, "rcr-trol.sfv": 1127, "The.Rhythm.of.Life.2007.DVDRip.XviD-REACTOR.avi": 733954048}
创建时间: 2020-01-18 23:51:03 大小:699.96 MB 文件数量:3 热度:4 最近下载:2022-04-08 06:30:47
    ... "Juno Reactor - Inside the Reactor.log": 4667, "Juno Reactor - Inside the Reactor.m3u": 643 ... , "11 Juno Reactor - Navras (Jayant ... remix).flac": 42717822, "03 Juno Reactor - Rotorblade (Perfect Stranger remix). ...
创建时间: 2020-01-19 10:06:20 大小:504.52 MB 文件数量:18 热度:4 最近下载:2022-04-08 05:40:59
    {"Shango": {"04 Badimo.mp3": 17368849, "03 Insects.mp3": 15151576, "08 Solaris.mp3": 21529633, "02 Hule Lam.mp3": 9619886, "01 Pistolero.mp3": 14957224, "06 Nitrogen, Pt. 1.mp3": 20570416, "07 Nitrogen, Pt. 2.mp3": 15451461, "09 Song for Ancestors.mp3": ...
创建时间: 2020-01-20 01:10:46 大小:993.37 MB 文件数量:55 热度:3 最近下载:2022-04-09 07:07:39
    {"guardianangel.jpg": 9541, "02_Juno_Reactor_-_Razorback-PsSt.mp3": 16594373, "01_Juno_Reactor_-_Guardian_Angel-PsSt.mp3": 17945431, "00_Juno_Reactor_-_Guardian_Angel-Ep-1995-PsSt.m3u": 81, "00_Juno_Reactor_-_Guardian_Angel-Ep-1995-PsSt.nfo": 3987}
创建时间: 2020-01-21 19:30:22 大小:32.95 MB 文件数量:5 热度:3 最近下载:2024-04-09 05:12:02
    {"RARBG.com.txt": 34, "Cannibal.Vegetarian.2012.DVDRip.XviD-REACTOR.avi": 733456384}
创建时间: 2020-02-01 02:49:13 大小:699.48 MB 文件数量:2 热度:2 最近下载:2022-04-13 06:06:06
    {"nickys.family.2011.dvdrip.x264-reactor.nfo": 381, "nickys.family.2011.dvdrip.x264-reactor.sfv": 3975, "Torrent Downloaded From www.torrenting.com.txt": 73, "Nickys.Family.2011.iNTERNAL.DVDRip.x264-REACTOR.mkv": 1124972029}
创建时间: 2020-02-13 12:50:09 大小:1.05 GB 文件数量:4 热度:3 最近下载:2023-12-24 15:55:03
    {"Folder.jpg": 6045, "AlbumArtSmall.jpg": 1804, "04-juno_reactor_-_the_heavens_(vapour_mix).mp3": 16803527, "03-juno_reactor_-_the_heavens_(monolith_mix).mp3": 16837981, "00-juno_reactor_-_high_energy_protons-(cdm)-1994.m3u": 216, "01-juno_reactor_- ...
创建时间: 2020-02-20 13:37:20 大小:63.78 MB 文件数量:10 热度:3 最近下载:2024-12-14 03:37:01
    {"Splean Minsk Reactor.cue": 3009, "Splean Minsk Reactor.mp3": 117790928}
创建时间: 2020-02-21 13:25:14 大小:112.34 MB 文件数量:2 热度:3 最近下载:2023-12-25 08:04:03
    {"Sample": {"rcr-camouflage-sample.avi": 5783552}, "rcr-camouflage.nfo": 5920, "rcr-camouflage.r00": 15000000, "rcr-camouflage.r01": 15000000, "rcr-camouflage.r02": 15000000, "rcr-camouflage.r03": 15000000, "rcr-camouflage.r04": 15000000, "rcr-camouflage. ...
创建时间: 2020-02-22 21:53:14 大小:712.46 MB 文件数量:54 热度:2 最近下载:2023-12-25 12:30:05
    {"Scans": {"1.jpg": 1173269, "2.jpg": 1125152, "3.jpg": 2669937, "4.jpg": 1836263}, "B. Blade.mp3": 21019468, "A. What You Are (Feat. Doug McCarthy).mp3": 20451044}
创建时间: 2020-02-23 14:36:43 大小:46.04 MB 文件数量:6 热度:5 最近下载:2025-03-23 10:36:01
    {"Reactor.md5": 446, "rufus-3.7. ... , "Windows 7x86-x64 Ultimate by Reactor.iso": 2778112000, "Прочти обязательно!.url ...
创建时间: 2020-02-24 16:40:15 大小:2.59 GB 文件数量:7 热度:3 最近下载:2023-12-25 18:22:05